Time;durP1;ratioP1;P1;durP2;ratioP2;P2;SDS_P1;SDS_P2;PMS_P1;PMS_P2;Temp;Humidity;BMP_temperature;BMP_pressure;BME280_temperature;BME280_humidity;BME280_pressure;Samples;Min_cycle;Max_cycle;Signal;HPM_P1;HPM_P2
2022/08/30 00:05:53;;;;;;;0.73;0.30;;;16.70;99.90;;;;;;20936618;28;20033;-84
2022/08/30 00:15:54;;;;;;;1.52;0.50;;;16.60;99.90;;;;;;20926541;28;20048;-83
2022/08/30 00:25:55;;;;;;;1.00;0.30;;;16.50;99.90;;;;;;20935704;28;20086;-83
2022/08/30 00:35:56;;;;;;;2.30;0.57;;;16.50;99.90;;;;;;20946996;28;20094;-83
2022/08/30 00:45:57;;;;;;;1.73;0.98;;;16.40;99.90;;;;;;20925505;28;20040;-83
2022/08/30 00:55:59;;;;;;;0.55;0.30;;;16.40;99.90;;;;;;20926529;28;20083;-83
2022/08/30 01:06:01;;;;;;;1.15;0.60;;;16.40;99.90;;;;;;20925758;28;20036;-82
2022/08/30 01:16:03;;;;;;;2.05;0.73;;;16.40;99.90;;;;;;20939332;28;20041;-82
2022/08/30 01:26:05;;;;;;;0.95;0.50;;;16.40;99.90;;;;;;20933728;28;20516;-82
2022/08/30 01:36:11;;;;;;;1.48;0.75;;;16.40;99.90;;;;;;20916384;28;21531;-82
2022/08/30 01:46:14;;;;;;;1.90;0.38;;;16.30;99.90;;;;;;20919381;28;20772;-82
2022/08/30 01:56:15;;;;;;;1.48;0.50;;;16.30;99.90;;;;;;20936389;28;20032;-82
2022/08/30 02:06:18;;;;;;;2.15;1.00;;;16.30;99.90;;;;;;20925922;28;20038;-82
2022/08/30 02:16:21;;;;;;;1.38;0.57;;;16.30;99.90;;;;;;20942070;28;20125;-82
2022/08/30 02:26:23;;;;;;;1.23;0.60;;;16.30;99.90;;;;;;20933956;28;20045;-82
2022/08/30 02:36:24;;;;;;;1.77;0.70;;;16.20;99.90;;;;;;20929936;28;20056;-82
2022/08/30 02:46:26;;;;;;;1.30;0.80;;;16.20;99.90;;;;;;20938129;28;20044;-82
2022/08/30 02:56:27;;;;;;;1.90;0.90;;;16.20;99.90;;;;;;20935376;28;20048;-83
2022/08/30 03:06:28;;;;;;;2.13;0.60;;;16.00;99.90;;;;;;20937278;28;20468;-82
2022/08/30 03:16:29;;;;;;;1.88;1.10;;;15.80;99.90;;;;;;20938320;28;20790;-82
2022/08/30 03:26:31;;;;;;;3.78;1.00;;;15.60;99.90;;;;;;20932809;28;20097;-82
2022/08/30 03:36:32;;;;;;;2.13;1.10;;;15.60;99.90;;;;;;20927393;28;20074;-82
2022/08/30 03:46:33;;;;;;;3.90;1.17;;;15.50;99.90;;;;;;20963383;28;20434;-82
2022/08/30 03:56:34;;;;;;;2.15;0.98;;;15.40;99.90;;;;;;20943641;28;20045;-82
2022/08/30 04:06:35;;;;;;;1.67;1.00;;;15.40;99.90;;;;;;20919865;28;20729;-82
2022/08/30 04:16:36;;;;;;;2.25;1.02;;;15.30;99.90;;;;;;20928626;28;20036;-82
2022/08/30 04:26:37;;;;;;;1.92;1.15;;;15.30;99.90;;;;;;20926379;28;20041;-83
2022/08/30 04:36:38;;;;;;;1.75;0.95;;;15.30;99.90;;;;;;20922069;28;20299;-82
2022/08/30 04:46:40;;;;;;;3.65;1.77;;;15.30;99.90;;;;;;20926748;28;20117;-81
2022/08/30 04:56:42;;;;;;;2.67;1.10;;;15.30;99.90;;;;;;20938278;28;20111;-83
2022/08/30 05:06:44;;;;;;;3.55;1.45;;;15.40;99.90;;;;;;20926874;28;20064;-83
2022/08/30 05:16:45;;;;;;;3.15;1.08;;;15.30;99.90;;;;;;20928621;28;20488;-82
2022/08/30 05:26:46;;;;;;;2.50;1.15;;;15.40;99.90;;;;;;20941302;28;20141;-82
2022/08/30 05:36:48;;;;;;;3.15;1.30;;;15.30;99.90;;;;;;20926907;28;20180;-87
2022/08/30 05:46:49;;;;;;;2.63;1.33;;;15.30;99.90;;;;;;20965454;28;20037;-81
2022/08/30 05:56:50;;;;;;;3.05;1.33;;;15.40;99.90;;;;;;20959265;28;20047;-82
2022/08/30 06:06:51;;;;;;;2.45;1.67;;;15.50;99.90;;;;;;20962213;28;20025;-82
2022/08/30 06:16:52;;;;;;;4.38;0.90;;;15.70;99.90;;;;;;20968984;28;20032;-83
2022/08/30 06:26:53;;;;;;;2.42;1.00;;;15.90;99.90;;;;;;20971242;28;20123;-82
2022/08/30 06:36:54;;;;;;;2.05;1.05;;;16.30;99.90;;;;;;20959902;28;20040;-82
2022/08/30 06:46:55;;;;;;;2.38;0.77;;;16.50;99.90;;;;;;20974931;28;20048;-84
2022/08/30 06:56:56;;;;;;;1.05;0.75;;;16.90;99.90;;;;;;20967875;28;20039;-82
2022/08/30 07:06:57;;;;;;;0.90;0.45;;;17.10;99.90;;;;;;20954880;28;20496;-81
2022/08/30 07:16:58;;;;;;;1.20;0.80;;;17.40;99.90;;;;;;20968572;28;20036;-81
2022/08/30 07:26:59;;;;;;;1.75;0.38;;;17.60;99.90;;;;;;20961910;28;20036;-81
2022/08/30 07:37:00;;;;;;;1.05;0.28;;;17.90;99.90;;;;;;20964575;28;20253;-81
2022/08/30 07:47:02;;;;;;;0.15;0.10;;;18.20;99.90;;;;;;20966663;28;20496;-80
2022/08/30 07:57:04;;;;;;;0.43;0.10;;;18.40;99.90;;;;;;20966995;28;20664;-81
2022/08/30 08:07:05;;;;;;;0.73;0.20;;;18.80;99.90;;;;;;20959550;28;20509;-81
2022/08/30 08:17:06;;;;;;;1.02;0.22;;;19.00;99.90;;;;;;20966156;28;20090;-80
2022/08/30 08:27:07;;;;;;;1.35;0.10;;;19.30;99.90;;;;;;20965970;28;20028;-80
2022/08/30 08:37:08;;;;;;;0.30;0.13;;;19.50;99.90;;;;;;20976270;28;20048;-80
2022/08/30 08:47:25;;;;;;;0.82;0.57;;;19.60;99.90;;;;;;20969960;28;20035;-80
2022/08/30 08:57:34;;;;;;;0.55;0.15;;;20.00;99.90;;;;;;20965018;28;20106;-80
2022/08/30 09:07:40;;;;;;;0.85;0.35;;;20.30;99.90;;;;;;20959893;28;20028;-80
2022/08/30 09:17:57;;;;;;;0.88;0.45;;;20.70;99.90;;;;;;20974119;28;20557;-80
2022/08/30 09:28:10;;;;;;;0.60;0.20;;;21.20;99.90;;;;;;20980638;28;20037;-80
2022/08/30 09:38:27;;;;;;;1.45;0.20;;;21.50;99.90;;;;;;21010595;28;20646;-80
2022/08/30 09:48:31;;;;;;;0.63;0.17;;;21.80;99.90;;;;;;20990207;28;20090;-81
2022/08/30 09:59:08;;;;;;;0.50;0.20;;;21.90;99.90;;;;;;20983509;28;20029;-80
2022/08/30 10:09:33;;;;;;;0.57;0.30;;;22.10;99.90;;;;;;20986844;28;20613;-81
2022/08/30 10:20:12;;;;;;;0.75;0.20;;;22.60;99.90;;;;;;20983053;28;20510;-81
2022/08/30 10:30:14;;;;;;;1.33;0.50;;;22.70;99.90;;;;;;20989602;28;21983;-80
2022/08/30 10:51:03;;;;;;;0.40;0.20;;;23.10;99.90;;;;;;20978580;28;20043;-80
2022/08/30 11:01:10;;;;;;;1.58;0.17;;;23.40;99.90;;;;;;20969236;28;20032;-80
2022/08/30 11:11:49;;;;;;;1.83;0.20;;;23.60;99.50;;;;;;20970380;28;20800;-80
2022/08/30 11:21:50;;;;;;;1.35;0.30;;;23.80;98.40;;;;;;20956343;28;20040;-80
2022/08/30 11:31:53;;;;;;;7.70;0.20;;;24.20;96.60;;;;;;20969605;28;20049;-79
2022/08/30 11:42:27;;;;;;;1.13;0.38;;;24.50;95.70;;;;;;20959253;28;20125;-80
2022/08/30 11:52:39;;;;;;;0.30;0.15;;;24.80;94.90;;;;;;20934866;28;20437;-80
2022/08/30 12:02:49;;;;;;;0.45;0.10;;;25.00;94.10;;;;;;20937331;28;20173;-80
2022/08/30 12:12:51;;;;;;;0.17;0.10;;;25.00;93.40;;;;;;20959178;28;20041;-80
2022/08/30 12:22:53;;;;;;;0.63;0.30;;;25.30;93.70;;;;;;20968017;28;20040;-80
2022/08/30 12:32:55;;;;;;;0.55;0.25;;;25.30;95.20;;;;;;20958929;28;20396;-80
2022/08/30 12:43:17;;;;;;;0.75;0.30;;;25.70;95.00;;;;;;20968640;28;20052;-80
2022/08/30 12:53:26;;;;;;;0.35;0.10;;;26.00;94.40;;;;;;20958166;28;20071;-80
2022/08/30 13:03:35;;;;;;;0.50;0.20;;;26.00;95.50;;;;;;20958759;28;20423;-79
2022/08/30 13:13:48;;;;;;;0.57;0.10;;;25.90;94.00;;;;;;20965446;28;20049;-79
2022/08/30 13:23:53;;;;;;;1.73;0.98;;;26.00;94.60;;;;;;20968314;28;20041;-79
2022/08/30 13:33:55;;;;;;;0.43;0.28;;;26.50;94.20;;;;;;20967492;28;20097;-79
2022/08/30 13:43:56;;;;;;;1.95;0.30;;;27.00;93.60;;;;;;20958977;28;20488;-79
2022/08/30 13:53:59;;;;;;;1.48;0.22;;;26.70;93.50;;;;;;20967497;28;20499;-80
2022/08/30 14:04:00;;;;;;;1.20;0.20;;;26.80;93.40;;;;;;20975626;28;20442;-80
2022/08/30 14:14:02;;;;;;;0.85;0.30;;;26.20;94.00;;;;;;20981800;28;20063;-80
2022/08/30 14:24:05;;;;;;;1.33;0.35;;;25.50;97.00;;;;;;20983293;28;20033;-80
2022/08/30 14:34:08;;;;;;;0.90;0.30;;;25.00;97.50;;;;;;20979747;28;20045;-80
2022/08/30 14:44:11;;;;;;;0.40;0.15;;;24.60;98.90;;;;;;20968838;28;20591;-80
2022/08/30 14:54:17;;;;;;;1.30;0.43;;;24.30;98.80;;;;;;20980145;28;20106;-79
2022/08/30 15:04:18;;;;;;;0.82;0.22;;;24.00;98.70;;;;;;20975506;28;20024;-79
2022/08/30 15:14:19;;;;;;;0.88;0.30;;;23.80;98.10;;;;;;21021191;28;20630;-79
2022/08/30 15:24:22;;;;;;;1.25;0.13;;;23.20;98.90;;;;;;20968950;28;20082;-80
2022/08/30 15:34:23;;;;;;;0.47;0.20;;;23.00;99.90;;;;;;20970027;28;20090;-80
2022/08/30 15:44:24;;;;;;;0.82;0.20;;;22.80;99.90;;;;;;20959413;28;20040;-80
2022/08/30 15:54:26;;;;;;;1.20;0.10;;;22.60;99.90;;;;;;20995685;28;20044;-80
2022/08/30 16:04:27;;;;;;;0.68;0.20;;;22.50;99.90;;;;;;20977184;28;20032;-79
2022/08/30 16:14:28;;;;;;;0.47;0.20;;;22.40;99.90;;;;;;20981536;28;20048;-80
2022/08/30 16:24:29;;;;;;;0.73;0.20;;;22.30;99.90;;;;;;20969240;28;20544;-80
2022/08/30 16:34:30;;;;;;;0.25;0.03;;;22.10;99.90;;;;;;20970998;28;20086;-80
2022/08/30 16:44:31;;;;;;;0.43;0.15;;;22.00;99.90;;;;;;20967597;28;20028;-80
2022/08/30 16:54:32;;;;;;;0.50;0.15;;;21.70;99.90;;;;;;20980464;28;20041;-80
2022/08/30 17:04:33;;;;;;;0.30;0.08;;;21.60;99.90;;;;;;20973326;28;20041;-80
2022/08/30 17:14:34;;;;;;;0.30;0.10;;;21.50;99.90;;;;;;20971953;28;20055;-80
2022/08/30 17:24:36;;;;;;;0.40;0.10;;;21.40;99.90;;;;;;20974995;28;20041;-80
2022/08/30 17:34:37;;;;;;;0.35;0.10;;;21.30;99.90;;;;;;20963079;28;20142;-80
2022/08/30 17:44:39;;;;;;;0.47;0.10;;;21.20;99.90;;;;;;20980077;28;20059;-81
2022/08/30 17:54:40;;;;;;;0.32;0.20;;;21.20;99.90;;;;;;20981955;28;20472;-81
2022/08/30 18:04:42;;;;;;;0.95;0.40;;;21.10;99.90;;;;;;20984539;28;20118;-81
2022/08/30 18:14:43;;;;;;;1.13;0.20;;;20.90;99.90;;;;;;20989506;28;20070;-81
2022/08/30 18:24:44;;;;;;;0.75;0.20;;;20.70;99.90;;;;;;20988229;28;20028;-81
2022/08/30 18:34:45;;;;;;;0.43;0.20;;;20.60;99.90;;;;;;20976206;28;20044;-81
2022/08/30 18:44:46;;;;;;;0.85;0.50;;;20.40;99.90;;;;;;20986206;28;20043;-81
2022/08/30 18:54:47;;;;;;;1.02;0.30;;;20.20;99.90;;;;;;20973325;28;20048;-81
2022/08/30 19:04:48;;;;;;;0.90;0.35;;;20.00;99.90;;;;;;20960333;28;20025;-81
2022/08/30 19:14:49;;;;;;;0.50;0.20;;;19.90;99.90;;;;;;20974379;28;20047;-81
2022/08/30 19:24:50;;;;;;;0.95;0.30;;;19.80;99.90;;;;;;20976525;28;20032;-81
2022/08/30 19:34:52;;;;;;;1.13;0.40;;;19.70;99.90;;;;;;20974303;28;20118;-81
2022/08/30 19:44:53;;;;;;;0.82;0.25;;;19.70;99.90;;;;;;20972528;28;20352;-81
2022/08/30 19:54:56;;;;;;;0.52;0.30;;;19.70;99.90;;;;;;20955515;28;20032;-81
2022/08/30 20:04:57;;;;;;;0.63;0.25;;;19.50;99.90;;;;;;20955159;28;20090;-81
2022/08/30 20:14:59;;;;;;;1.75;0.30;;;19.40;99.90;;;;;;20956900;28;20032;-81
2022/08/30 20:25:00;;;;;;;0.82;0.22;;;19.30;99.90;;;;;;20949778;28;20028;-79
2022/08/30 20:35:02;;;;;;;0.30;0.20;;;19.20;99.90;;;;;;20955235;28;20105;-79
2022/08/30 20:45:06;;;;;;;0.85;0.40;;;19.20;99.90;;;;;;20956085;28;20044;-79
2022/08/30 20:55:08;;;;;;;0.85;0.35;;;19.10;99.90;;;;;;20940278;28;20422;-79
2022/08/30 21:05:10;;;;;;;0.73;0.30;;;19.00;99.90;;;;;;20955620;28;20396;-79
2022/08/30 21:15:11;;;;;;;0.73;0.43;;;18.90;99.90;;;;;;20956001;28;20040;-79
2022/08/30 21:25:13;;;;;;;0.70;0.30;;;18.70;99.90;;;;;;20945148;28;20032;-79
2022/08/30 21:45:41;;;;;;;1.13;0.40;;;18.50;99.90;;;;;;20935887;28;20032;-79
2022/08/30 21:55:42;;;;;;;0.55;0.20;;;18.50;99.90;;;;;;20923347;28;20055;-79
2022/08/30 22:05:50;;;;;;;0.93;0.28;;;18.40;99.90;;;;;;20908080;28;20499;-79
2022/08/30 22:15:52;;;;;;;0.52;0.32;;;18.30;99.90;;;;;;20919746;28;20613;-79
2022/08/30 22:25:53;;;;;;;1.20;0.30;;;18.20;99.90;;;;;;20927027;28;20035;-79
2022/08/30 22:35:54;;;;;;;1.58;0.45;;;18.10;99.90;;;;;;20933732;28;20041;-79
2022/08/30 22:45:56;;;;;;;0.85;0.30;;;18.10;99.90;;;;;;20929601;28;20078;-79
2022/08/30 22:55:58;;;;;;;0.77;0.28;;;18.00;99.90;;;;;;20971266;28;20668;-79
2022/08/30 23:05:59;;;;;;;1.23;0.20;;;17.70;99.90;;;;;;20951796;28;20090;-80
2022/08/30 23:16:03;;;;;;;0.80;0.55;;;17.70;99.90;;;;;;20953840;28;20683;-80
